sensor_id;sensor_type;location;lat;lon;timestamp;P1;durP1;ratioP1;P2;durP2;ratioP2
41946;SDS011;27638;42.184;24.848;2023-02-28T00:02:19;13.68;;;7.43;;
41946;SDS011;27638;42.184;24.848;2023-02-28T00:04:45;13.18;;;6.78;;
41946;SDS011;27638;42.184;24.848;2023-02-28T00:07:17;13.88;;;7.22;;
41946;SDS011;27638;42.184;24.848;2023-02-28T00:09:43;13.00;;;7.35;;
41946;SDS011;27638;42.184;24.848;2023-02-28T00:12:09;10.00;;;6.47;;
41946;SDS011;27638;42.184;24.848;2023-02-28T00:14:35;13.48;;;7.70;;
41946;SDS011;27638;42.184;24.848;2023-02-28T00:17:01;11.50;;;7.22;;
41946;SDS011;27638;42.184;24.848;2023-02-28T00:19:27;15.23;;;7.57;;
41946;SDS011;27638;42.184;24.848;2023-02-28T00:21:52;13.90;;;7.15;;
41946;SDS011;27638;42.184;24.848;2023-02-28T00:24:18;14.48;;;7.93;;
41946;SDS011;27638;42.184;24.848;2023-02-28T00:26:43;10.80;;;6.78;;
41946;SDS011;27638;42.184;24.848;2023-02-28T00:29:09;13.00;;;7.43;;
41946;SDS011;27638;42.184;24.848;2023-02-28T00:31:35;12.13;;;6.85;;
41946;SDS011;27638;42.184;24.848;2023-02-28T00:34:00;11.07;;;7.03;;
41946;SDS011;27638;42.184;24.848;2023-02-28T00:36:26;9.02;;;7.30;;
41946;SDS011;27638;42.184;24.848;2023-02-28T00:38:51;22.65;;;10.32;;
41946;SDS011;27638;42.184;24.848;2023-02-28T00:41:17;34.95;;;14.77;;
41946;SDS011;27638;42.184;24.848;2023-02-28T00:43:43;108.70;;;37.42;;
41946;SDS011;27638;42.184;24.848;2023-02-28T00:46:08;31.10;;;13.68;;
41946;SDS011;27638;42.184;24.848;2023-02-28T00:48:34;47.72;;;18.58;;
41946;SDS011;27638;42.184;24.848;2023-02-28T00:51:00;15.98;;;8.00;;
41946;SDS011;27638;42.184;24.848;2023-02-28T00:53:25;13.98;;;8.10;;
41946;SDS011;27638;42.184;24.848;2023-02-28T00:55:51;11.75;;;7.40;;
41946;SDS011;27638;42.184;24.848;2023-02-28T00:58:16;13.02;;;7.78;;
41946;SDS011;27638;42.184;24.848;2023-02-28T01:00:42;11.77;;;7.35;;
41946;SDS011;27638;42.184;24.848;2023-02-28T01:03:07;12.63;;;7.78;;
41946;SDS011;27638;42.184;24.848;2023-02-28T01:05:33;20.70;;;10.38;;
41946;SDS011;27638;42.184;24.848;2023-02-28T01:07:58;15.93;;;7.97;;
41946;SDS011;27638;42.184;24.848;2023-02-28T01:10:24;15.07;;;7.90;;
41946;SDS011;27638;42.184;24.848;2023-02-28T01:12:50;12.80;;;8.00;;
41946;SDS011;27638;42.184;24.848;2023-02-28T01:15:15;13.18;;;7.55;;
41946;SDS011;27638;42.184;24.848;2023-02-28T01:17:41;13.57;;;7.75;;
41946;SDS011;27638;42.184;24.848;2023-02-28T01:20:06;11.48;;;7.30;;
41946;SDS011;27638;42.184;24.848;2023-02-28T01:22:34;12.85;;;7.53;;
41946;SDS011;27638;42.184;24.848;2023-02-28T01:24:59;12.85;;;7.93;;
41946;SDS011;27638;42.184;24.848;2023-02-28T01:27:25;13.20;;;7.03;;
41946;SDS011;27638;42.184;24.848;2023-02-28T01:29:51;11.23;;;7.53;;
41946;SDS011;27638;42.184;24.848;2023-02-28T01:32:16;13.23;;;6.50;;
41946;SDS011;27638;42.184;24.848;2023-02-28T01:34:42;12.70;;;6.55;;
41946;SDS011;27638;42.184;24.848;2023-02-28T01:37:07;11.05;;;6.95;;
41946;SDS011;27638;42.184;24.848;2023-02-28T01:39:33;11.50;;;6.82;;
41946;SDS011;27638;42.184;24.848;2023-02-28T01:41:58;11.15;;;6.50;;
41946;SDS011;27638;42.184;24.848;2023-02-28T01:47:55;19.83;;;8.48;;
41946;SDS011;27638;42.184;24.848;2023-02-28T01:50:26;17.77;;;9.18;;
41946;SDS011;27638;42.184;24.848;2023-02-28T01:52:55;18.50;;;9.60;;
41946;SDS011;27638;42.184;24.848;2023-02-28T01:55:24;17.00;;;8.25;;
41946;SDS011;27638;42.184;24.848;2023-02-28T01:57:54;18.85;;;9.23;;
41946;SDS011;27638;42.184;24.848;2023-02-28T02:00:22;15.93;;;8.52;;
41946;SDS011;27638;42.184;24.848;2023-02-28T02:02:53;15.40;;;8.63;;
41946;SDS011;27638;42.184;24.848;2023-02-28T02:05:22;15.38;;;7.72;;
41946;SDS011;27638;42.184;24.848;2023-02-28T02:07:57;15.88;;;7.47;;
41946;SDS011;27638;42.184;24.848;2023-02-28T02:10:31;15.48;;;8.05;;
41946;SDS011;27638;42.184;24.848;2023-02-28T02:16:21;20.08;;;9.23;;
41946;SDS011;27638;42.184;24.848;2023-02-28T02:28:05;17.58;;;9.32;;
41946;SDS011;27638;42.184;24.848;2023-02-28T02:43:57;19.23;;;9.57;;
41946;SDS011;27638;42.184;24.848;2023-02-28T02:49:05;22.13;;;9.50;;
41946;SDS011;27638;42.184;24.848;2023-02-28T02:51:34;14.57;;;8.77;;
41946;SDS011;27638;42.184;24.848;2023-02-28T02:54:05;19.63;;;10.65;;
41946;SDS011;27638;42.184;24.848;2023-02-28T02:56:35;46.20;;;11.77;;
41946;SDS011;27638;42.184;24.848;2023-02-28T02:59:06;22.40;;;9.63;;
41946;SDS011;27638;42.184;24.848;2023-02-28T03:01:35;22.48;;;10.15;;
41946;SDS011;27638;42.184;24.848;2023-02-28T03:04:04;24.88;;;10.38;;
41946;SDS011;27638;42.184;24.848;2023-02-28T03:06:32;22.00;;;10.52;;
41946;SDS011;27638;42.184;24.848;2023-02-28T03:08:59;23.92;;;12.30;;
41946;SDS011;27638;42.184;24.848;2023-02-28T03:11:25;21.10;;;10.77;;
41946;SDS011;27638;42.184;24.848;2023-02-28T03:16:38;22.08;;;10.55;;
41946;SDS011;27638;42.184;24.848;2023-02-28T03:33:19;15.88;;;7.28;;
41946;SDS011;27638;42.184;24.848;2023-02-28T03:35:59;22.55;;;9.50;;
41946;SDS011;27638;42.184;24.848;2023-02-28T03:38:48;18.92;;;9.90;;
41946;SDS011;27638;42.184;24.848;2023-02-28T03:41:20;18.08;;;8.98;;
41946;SDS011;27638;42.184;24.848;2023-02-28T03:43:51;17.02;;;8.60;;
41946;SDS011;27638;42.184;24.848;2023-02-28T03:46:22;15.73;;;8.82;;
41946;SDS011;27638;42.184;24.848;2023-02-28T03:49:03;14.60;;;7.70;;
41946;SDS011;27638;42.184;24.848;2023-02-28T03:51:36;15.20;;;7.30;;
41946;SDS011;27638;42.184;24.848;2023-02-28T03:54:07;18.60;;;8.60;;
41946;SDS011;27638;42.184;24.848;2023-02-28T03:56:38;16.30;;;7.88;;
41946;SDS011;27638;42.184;24.848;2023-02-28T03:59:53;13.73;;;6.90;;
41946;SDS011;27638;42.184;24.848;2023-02-28T04:02:03;19.13;;;9.20;;
41946;SDS011;27638;42.184;24.848;2023-02-28T04:04:28;14.23;;;7.15;;
41946;SDS011;27638;42.184;24.848;2023-02-28T04:07:00;16.48;;;8.65;;
41946;SDS011;27638;42.184;24.848;2023-02-28T04:09:28;16.40;;;7.50;;
41946;SDS011;27638;42.184;24.848;2023-02-28T04:11:53;16.70;;;8.70;;
41946;SDS011;27638;42.184;24.848;2023-02-28T04:14:20;18.63;;;7.60;;
41946;SDS011;27638;42.184;24.848;2023-02-28T04:16:46;14.95;;;8.73;;
41946;SDS011;27638;42.184;24.848;2023-02-28T04:19:12;14.93;;;8.13;;
41946;SDS011;27638;42.184;24.848;2023-02-28T04:21:39;17.15;;;9.48;;
41946;SDS011;27638;42.184;24.848;2023-02-28T04:24:07;18.25;;;8.75;;
41946;SDS011;27638;42.184;24.848;2023-02-28T04:26:39;16.27;;;9.00;;
41946;SDS011;27638;42.184;24.848;2023-02-28T04:29:05;18.05;;;8.63;;
41946;SDS011;27638;42.184;24.848;2023-02-28T04:31:32;17.00;;;7.63;;
41946;SDS011;27638;42.184;24.848;2023-02-28T04:33:58;18.67;;;9.45;;
41946;SDS011;27638;42.184;24.848;2023-02-28T04:36:23;16.08;;;8.32;;
41946;SDS011;27638;42.184;24.848;2023-02-28T04:38:49;14.98;;;7.22;;
41946;SDS011;27638;42.184;24.848;2023-02-28T04:41:15;16.67;;;6.70;;
41946;SDS011;27638;42.184;24.848;2023-02-28T04:43:40;12.77;;;6.70;;
41946;SDS011;27638;42.184;24.848;2023-02-28T04:46:06;16.38;;;8.63;;
41946;SDS011;27638;42.184;24.848;2023-02-28T04:48:32;17.25;;;8.73;;
41946;SDS011;27638;42.184;24.848;2023-02-28T04:51:07;12.40;;;7.65;;
41946;SDS011;27638;42.184;24.848;2023-02-28T04:53:35;16.48;;;7.97;;
41946;SDS011;27638;42.184;24.848;2023-02-28T04:56:02;16.48;;;7.63;;
41946;SDS011;27638;42.184;24.848;2023-02-28T04:58:28;16.67;;;7.47;;
41946;SDS011;27638;42.184;24.848;2023-02-28T05:00:57;17.88;;;9.88;;
41946;SDS011;27638;42.184;24.848;2023-02-28T05:03:27;19.13;;;9.77;;
41946;SDS011;27638;42.184;24.848;2023-02-28T05:05:52;19.35;;;9.35;;
41946;SDS011;27638;42.184;24.848;2023-02-28T05:08:18;12.50;;;7.03;;
41946;SDS011;27638;42.184;24.848;2023-02-28T05:10:43;14.73;;;7.65;;
41946;SDS011;27638;42.184;24.848;2023-02-28T05:13:11;17.40;;;9.18;;
41946;SDS011;27638;42.184;24.848;2023-02-28T05:15:37;17.67;;;9.35;;
41946;SDS011;27638;42.184;24.848;2023-02-28T05:18:03;14.35;;;8.02;;
41946;SDS011;27638;42.184;24.848;2023-02-28T05:20:28;15.27;;;7.82;;
41946;SDS011;27638;42.184;24.848;2023-02-28T05:22:54;21.20;;;9.57;;
41946;SDS011;27638;42.184;24.848;2023-02-28T05:25:20;18.83;;;10.32;;
41946;SDS011;27638;42.184;24.848;2023-02-28T05:27:49;18.80;;;9.38;;
41946;SDS011;27638;42.184;24.848;2023-02-28T05:30:14;13.52;;;7.70;;
41946;SDS011;27638;42.184;24.848;2023-02-28T05:32:40;15.75;;;8.90;;
41946;SDS011;27638;42.184;24.848;2023-02-28T05:35:09;18.27;;;8.38;;
41946;SDS011;27638;42.184;24.848;2023-02-28T05:37:36;15.32;;;8.02;;
41946;SDS011;27638;42.184;24.848;2023-02-28T05:40:02;13.68;;;6.70;;
41946;SDS011;27638;42.184;24.848;2023-02-28T05:42:31;13.18;;;7.50;;
41946;SDS011;27638;42.184;24.848;2023-02-28T05:44:56;16.02;;;8.25;;
41946;SDS011;27638;42.184;24.848;2023-02-28T05:47:22;17.98;;;7.57;;
41946;SDS011;27638;42.184;24.848;2023-02-28T05:49:47;15.77;;;8.73;;
41946;SDS011;27638;42.184;24.848;2023-02-28T05:52:13;20.45;;;9.73;;
41946;SDS011;27638;42.184;24.848;2023-02-28T05:54:38;15.07;;;8.55;;
41946;SDS011;27638;42.184;24.848;2023-02-28T05:57:04;17.73;;;9.50;;
41946;SDS011;27638;42.184;24.848;2023-02-28T05:59:29;17.10;;;8.48;;
41946;SDS011;27638;42.184;24.848;2023-02-28T06:01:54;18.05;;;8.85;;
41946;SDS011;27638;42.184;24.848;2023-02-28T06:04:20;19.85;;;9.95;;
41946;SDS011;27638;42.184;24.848;2023-02-28T06:06:46;20.75;;;10.13;;
41946;SDS011;27638;42.184;24.848;2023-02-28T06:09:13;20.30;;;9.52;;
41946;SDS011;27638;42.184;24.848;2023-02-28T06:11:39;17.55;;;9.05;;
41946;SDS011;27638;42.184;24.848;2023-02-28T06:14:04;17.38;;;8.27;;
41946;SDS011;27638;42.184;24.848;2023-02-28T06:16:31;18.95;;;9.88;;
41946;SDS011;27638;42.184;24.848;2023-02-28T06:18:59;16.83;;;8.80;;
41946;SDS011;27638;42.184;24.848;2023-02-28T06:21:25;17.27;;;8.40;;
41946;SDS011;27638;42.184;24.848;2023-02-28T06:23:52;17.27;;;8.75;;
41946;SDS011;27638;42.184;24.848;2023-02-28T06:26:18;17.15;;;8.52;;
41946;SDS011;27638;42.184;24.848;2023-02-28T06:28:44;19.60;;;9.63;;
41946;SDS011;27638;42.184;24.848;2023-02-28T06:31:11;18.02;;;8.57;;
41946;SDS011;27638;42.184;24.848;2023-02-28T06:33:38;17.65;;;8.30;;
41946;SDS011;27638;42.184;24.848;2023-02-28T06:36:05;14.93;;;6.40;;
41946;SDS011;27638;42.184;24.848;2023-02-28T06:38:32;17.98;;;9.18;;
41946;SDS011;27638;42.184;24.848;2023-02-28T06:40:58;17.05;;;7.68;;
41946;SDS011;27638;42.184;24.848;2023-02-28T06:43:25;23.35;;;10.88;;
41946;SDS011;27638;42.184;24.848;2023-02-28T06:45:56;16.98;;;9.10;;
41946;SDS011;27638;42.184;24.848;2023-02-28T06:48:23;22.05;;;11.00;;
41946;SDS011;27638;42.184;24.848;2023-02-28T06:50:49;22.95;;;11.05;;
41946;SDS011;27638;42.184;24.848;2023-02-28T06:53:15;20.88;;;9.27;;
41946;SDS011;27638;42.184;24.848;2023-02-28T06:55:40;20.20;;;9.63;;
41946;SDS011;27638;42.184;24.848;2023-02-28T06:58:06;17.70;;;10.30;;
41946;SDS011;27638;42.184;24.848;2023-02-28T07:00:44;20.98;;;9.95;;
41946;SDS011;27638;42.184;24.848;2023-02-28T07:03:10;21.98;;;11.32;;
41946;SDS011;27638;42.184;24.848;2023-02-28T07:05:38;17.70;;;9.98;;
41946;SDS011;27638;42.184;24.848;2023-02-28T07:08:05;21.52;;;10.70;;
41946;SDS011;27638;42.184;24.848;2023-02-28T07:10:31;20.35;;;10.05;;
41946;SDS011;27638;42.184;24.848;2023-02-28T07:12:57;16.80;;;7.13;;
41946;SDS011;27638;42.184;24.848;2023-02-28T07:15:23;22.63;;;11.52;;
41946;SDS011;27638;42.184;24.848;2023-02-28T07:17:49;24.75;;;10.70;;
41946;SDS011;27638;42.184;24.848;2023-02-28T07:20:15;17.15;;;8.73;;
41946;SDS011;27638;42.184;24.848;2023-02-28T07:22:40;17.70;;;9.10;;
41946;SDS011;27638;42.184;24.848;2023-02-28T07:25:06;15.05;;;8.10;;
41946;SDS011;27638;42.184;24.848;2023-02-28T07:27:32;17.40;;;8.80;;
41946;SDS011;27638;42.184;24.848;2023-02-28T07:29:59;20.38;;;8.85;;
41946;SDS011;27638;42.184;24.848;2023-02-28T07:32:26;12.40;;;6.38;;
41946;SDS011;27638;42.184;24.848;2023-02-28T07:34:52;18.60;;;9.35;;
41946;SDS011;27638;42.184;24.848;2023-02-28T07:37:18;13.95;;;7.18;;
41946;SDS011;27638;42.184;24.848;2023-02-28T07:39:44;16.83;;;8.52;;
41946;SDS011;27638;42.184;24.848;2023-02-28T07:42:09;18.15;;;8.85;;
41946;SDS011;27638;42.184;24.848;2023-02-28T07:44:37;16.25;;;8.27;;
41946;SDS011;27638;42.184;24.848;2023-02-28T07:47:06;14.35;;;7.95;;
41946;SDS011;27638;42.184;24.848;2023-02-28T07:49:32;18.83;;;8.70;;
41946;SDS011;27638;42.184;24.848;2023-02-28T07:51:59;16.25;;;7.55;;
41946;SDS011;27638;42.184;24.848;2023-02-28T07:54:24;19.52;;;9.13;;
41946;SDS011;27638;42.184;24.848;2023-02-28T07:56:49;17.73;;;9.23;;
41946;SDS011;27638;42.184;24.848;2023-02-28T07:59:15;18.83;;;10.13;;
41946;SDS011;27638;42.184;24.848;2023-02-28T08:01:40;20.60;;;10.32;;
41946;SDS011;27638;42.184;24.848;2023-02-28T08:04:06;24.15;;;9.93;;
41946;SDS011;27638;42.184;24.848;2023-02-28T08:06:31;20.05;;;10.25;;
41946;SDS011;27638;42.184;24.848;2023-02-28T08:08:56;14.57;;;6.88;;
41946;SDS011;27638;42.184;24.848;2023-02-28T08:11:22;18.77;;;9.30;;
41946;SDS011;27638;42.184;24.848;2023-02-28T08:13:48;24.25;;;10.93;;
41946;SDS011;27638;42.184;24.848;2023-02-28T08:16:14;24.08;;;10.40;;
41946;SDS011;27638;42.184;24.848;2023-02-28T08:18:42;29.20;;;14.45;;
41946;SDS011;27638;42.184;24.848;2023-02-28T08:21:08;27.20;;;15.05;;
41946;SDS011;27638;42.184;24.848;2023-02-28T08:23:34;19.38;;;10.10;;
41946;SDS011;27638;42.184;24.848;2023-02-28T08:26:00;19.98;;;10.52;;
41946;SDS011;27638;42.184;24.848;2023-02-28T08:28:26;23.10;;;10.82;;
41946;SDS011;27638;42.184;24.848;2023-02-28T08:30:51;20.45;;;10.65;;
41946;SDS011;27638;42.184;24.848;2023-02-28T08:33:17;22.20;;;11.82;;
41946;SDS011;27638;42.184;24.848;2023-02-28T08:35:42;19.70;;;10.20;;
41946;SDS011;27638;42.184;24.848;2023-02-28T08:38:08;28.33;;;13.13;;
41946;SDS011;27638;42.184;24.848;2023-02-28T08:40:33;22.15;;;11.63;;
41946;SDS011;27638;42.184;24.848;2023-02-28T08:42:58;21.20;;;10.70;;
41946;SDS011;27638;42.184;24.848;2023-02-28T08:45:24;20.02;;;9.50;;
41946;SDS011;27638;42.184;24.848;2023-02-28T08:47:50;20.83;;;9.85;;
41946;SDS011;27638;42.184;24.848;2023-02-28T08:50:17;22.42;;;11.00;;
41946;SDS011;27638;42.184;24.848;2023-02-28T08:52:43;23.73;;;12.38;;
41946;SDS011;27638;42.184;24.848;2023-02-28T08:55:09;19.00;;;9.73;;
41946;SDS011;27638;42.184;24.848;2023-02-28T08:57:35;23.05;;;12.15;;
41946;SDS011;27638;42.184;24.848;2023-02-28T09:00:00;24.27;;;12.48;;
41946;SDS011;27638;42.184;24.848;2023-02-28T09:02:29;20.67;;;10.48;;
41946;SDS011;27638;42.184;24.848;2023-02-28T09:04:55;22.08;;;10.63;;
41946;SDS011;27638;42.184;24.848;2023-02-28T09:07:20;22.92;;;11.52;;
41946;SDS011;27638;42.184;24.848;2023-02-28T09:09:46;23.88;;;11.70;;
41946;SDS011;27638;42.184;24.848;2023-02-28T09:12:21;25.30;;;12.75;;
41946;SDS011;27638;42.184;24.848;2023-02-28T09:14:47;17.88;;;10.25;;
41946;SDS011;27638;42.184;24.848;2023-02-28T09:17:13;20.75;;;11.30;;
41946;SDS011;27638;42.184;24.848;2023-02-28T09:19:38;23.85;;;10.23;;
41946;SDS011;27638;42.184;24.848;2023-02-28T09:22:04;27.00;;;13.07;;
41946;SDS011;27638;42.184;24.848;2023-02-28T09:24:29;35.33;;;13.50;;
41946;SDS011;27638;42.184;24.848;2023-02-28T09:26:56;27.15;;;12.93;;
41946;SDS011;27638;42.184;24.848;2023-02-28T09:29:22;29.65;;;13.18;;
41946;SDS011;27638;42.184;24.848;2023-02-28T09:31:47;35.47;;;16.15;;
41946;SDS011;27638;42.184;24.848;2023-02-28T09:34:13;22.85;;;11.43;;
41946;SDS011;27638;42.184;24.848;2023-02-28T09:36:38;23.48;;;11.85;;
41946;SDS011;27638;42.184;24.848;2023-02-28T09:39:04;27.80;;;13.82;;
41946;SDS011;27638;42.184;24.848;2023-02-28T09:41:32;28.60;;;14.00;;
41946;SDS011;27638;42.184;24.848;2023-02-28T09:44:05;29.98;;;15.32;;
41946;SDS011;27638;42.184;24.848;2023-02-28T09:46:43;27.02;;;13.65;;
41946;SDS011;27638;42.184;24.848;2023-02-28T09:49:19;25.55;;;12.48;;
41946;SDS011;27638;42.184;24.848;2023-02-28T09:54:28;29.10;;;14.30;;
41946;SDS011;27638;42.184;24.848;2023-02-28T09:59:29;26.73;;;14.32;;
41946;SDS011;27638;42.184;24.848;2023-02-28T10:05:02;22.55;;;11.02;;
41946;SDS011;27638;42.184;24.848;2023-02-28T10:10:16;28.02;;;14.75;;
41946;SDS011;27638;42.184;24.848;2023-02-28T10:13:04;29.88;;;14.00;;
41946;SDS011;27638;42.184;24.848;2023-02-28T10:15:31;34.13;;;15.85;;
41946;SDS011;27638;42.184;24.848;2023-02-28T10:18:01;26.42;;;12.23;;
41946;SDS011;27638;42.184;24.848;2023-02-28T10:20:37;28.25;;;12.52;;
41946;SDS011;27638;42.184;24.848;2023-02-28T10:23:16;31.38;;;12.93;;
41946;SDS011;27638;42.184;24.848;2023-02-28T10:25:53;31.13;;;14.52;;
41946;SDS011;27638;42.184;24.848;2023-02-28T10:28:24;32.13;;;15.48;;
41946;SDS011;27638;42.184;24.848;2023-02-28T10:30:51;30.70;;;14.90;;
41946;SDS011;27638;42.184;24.848;2023-02-28T10:33:27;29.08;;;14.38;;
41946;SDS011;27638;42.184;24.848;2023-02-28T10:35:59;31.55;;;14.48;;
41946;SDS011;27638;42.184;24.848;2023-02-28T10:38:35;30.52;;;15.52;;
41946;SDS011;27638;42.184;24.848;2023-02-28T10:41:07;36.15;;;15.15;;
41946;SDS011;27638;42.184;24.848;2023-02-28T10:43:34;30.77;;;15.88;;
41946;SDS011;27638;42.184;24.848;2023-02-28T10:51:08;37.95;;;17.77;;
41946;SDS011;27638;42.184;24.848;2023-02-28T10:53:45;38.08;;;17.08;;
41946;SDS011;27638;42.184;24.848;2023-02-28T10:56:17;34.13;;;16.88;;
41946;SDS011;27638;42.184;24.848;2023-02-28T10:58:59;32.97;;;16.10;;
41946;SDS011;27638;42.184;24.848;2023-02-28T11:04:16;36.13;;;16.67;;
41946;SDS011;27638;42.184;24.848;2023-02-28T11:06:44;35.92;;;16.48;;
41946;SDS011;27638;42.184;24.848;2023-02-28T11:09:18;32.85;;;16.13;;
41946;SDS011;27638;42.184;24.848;2023-02-28T11:11:49;35.63;;;17.30;;
41946;SDS011;27638;42.184;24.848;2023-02-28T11:14:19;31.23;;;13.98;;
41946;SDS011;27638;42.184;24.848;2023-02-28T11:16:47;31.00;;;14.38;;
41946;SDS011;27638;42.184;24.848;2023-02-28T11:19:18;31.55;;;15.80;;
41946;SDS011;27638;42.184;24.848;2023-02-28T11:21:53;34.83;;;15.68;;
41946;SDS011;27638;42.184;24.848;2023-02-28T11:24:29;37.42;;;18.33;;
41946;SDS011;27638;42.184;24.848;2023-02-28T11:26:58;34.33;;;15.57;;
41946;SDS011;27638;42.184;24.848;2023-02-28T11:29:24;35.17;;;17.05;;
41946;SDS011;27638;42.184;24.848;2023-02-28T11:34:34;33.78;;;16.65;;
41946;SDS011;27638;42.184;24.848;2023-02-28T11:37:00;33.08;;;15.52;;
41946;SDS011;27638;42.184;24.848;2023-02-28T11:39:30;31.88;;;14.75;;
41946;SDS011;27638;42.184;24.848;2023-02-28T11:53:04;33.22;;;16.90;;
41946;SDS011;27638;42.184;24.848;2023-02-28T11:56:03;28.70;;;14.23;;
41946;SDS011;27638;42.184;24.848;2023-02-28T11:58:44;26.58;;;12.90;;
41946;SDS011;27638;42.184;24.848;2023-02-28T12:04:30;33.28;;;15.07;;
41946;SDS011;27638;42.184;24.848;2023-02-28T12:10:02;37.22;;;17.25;;
41946;SDS011;27638;42.184;24.848;2023-02-28T12:12:36;32.40;;;15.93;;
41946;SDS011;27638;42.184;24.848;2023-02-28T12:17:50;31.52;;;16.55;;
41946;SDS011;27638;42.184;24.848;2023-02-28T12:29:01;29.73;;;14.27;;
41946;SDS011;27638;42.184;24.848;2023-02-28T12:31:36;30.85;;;16.17;;
41946;SDS011;27638;42.184;24.848;2023-02-28T12:34:07;31.55;;;16.27;;
41946;SDS011;27638;42.184;24.848;2023-02-28T12:36:38;29.33;;;14.90;;
41946;SDS011;27638;42.184;24.848;2023-02-28T12:41:54;35.47;;;17.35;;
41946;SDS011;27638;42.184;24.848;2023-02-28T12:44:30;33.13;;;16.52;;
41946;SDS011;27638;42.184;24.848;2023-02-28T12:47:03;31.73;;;15.45;;
41946;SDS011;27638;42.184;24.848;2023-02-28T12:52:09;36.92;;;18.08;;
41946;SDS011;27638;42.184;24.848;2023-02-28T12:54:44;30.00;;;14.40;;
41946;SDS011;27638;42.184;24.848;2023-02-28T12:57:24;31.42;;;15.82;;
41946;SDS011;27638;42.184;24.848;2023-02-28T13:00:12;35.28;;;16.48;;
41946;SDS011;27638;42.184;24.848;2023-02-28T13:02:49;36.03;;;16.52;;
41946;SDS011;27638;42.184;24.848;2023-02-28T13:10:44;33.80;;;15.82;;
41946;SDS011;27638;42.184;24.848;2023-02-28T13:13:16;34.58;;;17.77;;
41946;SDS011;27638;42.184;24.848;2023-02-28T13:18:42;35.90;;;18.88;;
41946;SDS011;27638;42.184;24.848;2023-02-28T13:28:57;29.08;;;16.80;;
41946;SDS011;27638;42.184;24.848;2023-02-28T13:31:25;31.58;;;16.15;;
41946;SDS011;27638;42.184;24.848;2023-02-28T13:38:51;27.75;;;15.02;;
41946;SDS011;27638;42.184;24.848;2023-02-28T13:44:11;23.83;;;12.90;;
41946;SDS011;27638;42.184;24.848;2023-02-28T14:05:41;22.50;;;13.50;;
41946;SDS011;27638;42.184;24.848;2023-02-28T14:08:08;24.90;;;13.48;;
41946;SDS011;27638;42.184;24.848;2023-02-28T14:10:49;25.77;;;13.68;;
41946;SDS011;27638;42.184;24.848;2023-02-28T14:16:02;25.45;;;12.82;;
41946;SDS011;27638;42.184;24.848;2023-02-28T14:18:33;26.45;;;14.93;;
41946;SDS011;27638;42.184;24.848;2023-02-28T14:21:02;24.05;;;12.85;;
41946;SDS011;27638;42.184;24.848;2023-02-28T14:32:21;28.42;;;15.15;;
41946;SDS011;27638;42.184;24.848;2023-02-28T14:37:53;31.90;;;16.35;;
41946;SDS011;27638;42.184;24.848;2023-02-28T14:40:27;33.53;;;15.95;;
41946;SDS011;27638;42.184;24.848;2023-02-28T14:42:59;36.72;;;19.40;;
41946;SDS011;27638;42.184;24.848;2023-02-28T14:45:27;30.90;;;17.40;;
41946;SDS011;27638;42.184;24.848;2023-02-28T14:47:55;29.70;;;16.50;;
41946;SDS011;27638;42.184;24.848;2023-02-28T14:50:24;29.27;;;14.93;;
41946;SDS011;27638;42.184;24.848;2023-02-28T14:52:58;30.38;;;16.08;;
41946;SDS011;27638;42.184;24.848;2023-02-28T14:55:34;30.73;;;16.55;;
41946;SDS011;27638;42.184;24.848;2023-02-28T14:58:01;27.23;;;15.25;;
41946;SDS011;27638;42.184;24.848;2023-02-28T15:00:32;27.85;;;13.88;;
41946;SDS011;27638;42.184;24.848;2023-02-28T15:03:00;28.60;;;14.07;;
41946;SDS011;27638;42.184;24.848;2023-02-28T15:05:42;27.13;;;14.20;;
41946;SDS011;27638;42.184;24.848;2023-02-28T15:08:12;29.63;;;15.85;;
41946;SDS011;27638;42.184;24.848;2023-02-28T15:10:50;31.33;;;16.10;;
41946;SDS011;27638;42.184;24.848;2023-02-28T15:13:16;25.17;;;14.25;;
41946;SDS011;27638;42.184;24.848;2023-02-28T15:20:47;27.98;;;15.55;;
41946;SDS011;27638;42.184;24.848;2023-02-28T15:23:14;31.85;;;16.15;;
41946;SDS011;27638;42.184;24.848;2023-02-28T15:25:40;28.63;;;14.50;;
41946;SDS011;27638;42.184;24.848;2023-02-28T15:28:09;28.95;;;16.05;;
41946;SDS011;27638;42.184;24.848;2023-02-28T15:35:48;34.50;;;17.83;;
41946;SDS011;27638;42.184;24.848;2023-02-28T15:40:46;48.97;;;25.65;;
41946;SDS011;27638;42.184;24.848;2023-02-28T15:45:57;59.00;;;29.58;;
41946;SDS011;27638;42.184;24.848;2023-02-28T15:48:24;42.95;;;20.88;;
41946;SDS011;27638;42.184;24.848;2023-02-28T15:50:55;36.25;;;16.30;;
41946;SDS011;27638;42.184;24.848;2023-02-28T15:53:33;31.30;;;15.43;;
41946;SDS011;27638;42.184;24.848;2023-02-28T15:56:21;41.28;;;19.30;;
41946;SDS011;27638;42.184;24.848;2023-02-28T15:58:55;79.35;;;36.42;;
41946;SDS011;27638;42.184;24.848;2023-02-28T16:03:55;88.68;;;41.95;;
41946;SDS011;27638;42.184;24.848;2023-02-28T16:06:26;86.80;;;40.10;;
41946;SDS011;27638;42.184;24.848;2023-02-28T16:09:16;70.43;;;34.30;;
41946;SDS011;27638;42.184;24.848;2023-02-28T16:11:52;60.97;;;27.27;;
41946;SDS011;27638;42.184;24.848;2023-02-28T16:14:22;56.78;;;25.85;;
41946;SDS011;27638;42.184;24.848;2023-02-28T16:16:51;50.53;;;23.67;;
41946;SDS011;27638;42.184;24.848;2023-02-28T16:19:19;38.70;;;16.67;;
41946;SDS011;27638;42.184;24.848;2023-02-28T16:21:45;54.38;;;25.98;;
41946;SDS011;27638;42.184;24.848;2023-02-28T16:24:11;46.70;;;21.67;;
41946;SDS011;27638;42.184;24.848;2023-02-28T16:26:37;36.42;;;16.17;;
41946;SDS011;27638;42.184;24.848;2023-02-28T16:29:11;33.92;;;15.95;;
41946;SDS011;27638;42.184;24.848;2023-02-28T16:31:41;31.85;;;14.90;;
41946;SDS011;27638;42.184;24.848;2023-02-28T16:34:06;26.83;;;13.27;;
41946;SDS011;27638;42.184;24.848;2023-02-28T16:36:31;31.65;;;15.20;;
41946;SDS011;27638;42.184;24.848;2023-02-28T16:38:57;24.98;;;11.98;;
41946;SDS011;27638;42.184;24.848;2023-02-28T16:41:26;22.08;;;11.93;;
41946;SDS011;27638;42.184;24.848;2023-02-28T16:43:53;35.10;;;16.92;;
41946;SDS011;27638;42.184;24.848;2023-02-28T16:46:25;22.52;;;10.52;;
41946;SDS011;27638;42.184;24.848;2023-02-28T16:48:55;24.67;;;12.50;;
41946;SDS011;27638;42.184;24.848;2023-02-28T16:51:20;26.05;;;14.23;;
41946;SDS011;27638;42.184;24.848;2023-02-28T16:53:46;29.88;;;13.00;;
41946;SDS011;27638;42.184;24.848;2023-02-28T16:56:21;25.88;;;11.68;;
41946;SDS011;27638;42.184;24.848;2023-02-28T16:58:49;25.73;;;12.68;;
41946;SDS011;27638;42.184;24.848;2023-02-28T17:01:16;29.08;;;13.90;;
41946;SDS011;27638;42.184;24.848;2023-02-28T17:03:46;29.00;;;15.50;;
41946;SDS011;27638;42.184;24.848;2023-02-28T17:06:26;34.25;;;16.23;;
41946;SDS011;27638;42.184;24.848;2023-02-28T17:08:53;27.20;;;13.05;;
41946;SDS011;27638;42.184;24.848;2023-02-28T17:11:20;24.60;;;10.98;;
41946;SDS011;27638;42.184;24.848;2023-02-28T17:13:46;22.20;;;9.63;;
41946;SDS011;27638;42.184;24.848;2023-02-28T17:18:45;29.60;;;14.25;;
41946;SDS011;27638;42.184;24.848;2023-02-28T17:21:17;28.60;;;13.20;;
41946;SDS011;27638;42.184;24.848;2023-02-28T17:23:42;23.95;;;13.65;;
41946;SDS011;27638;42.184;24.848;2023-02-28T17:26:12;28.52;;;12.60;;